createdAt,value
2022-10-17T00:07:23.377Z,4.1
2022-10-17T00:22:33.496Z,5.3
2022-10-17T00:37:42.815Z,3.4
2022-10-17T00:52:51.967Z,3.2
2022-10-17T01:08:01.157Z,3.5
2022-10-17T01:23:10.861Z,5.4
2022-10-17T01:38:22.479Z,9.7
2022-10-17T01:53:32.068Z,3.7
2022-10-17T02:08:41.692Z,5.4
2022-10-17T02:23:51.365Z,6
2022-10-17T02:39:01.239Z,3.7
2022-10-17T02:54:09.993Z,5.7
2022-10-17T03:09:19.572Z,4.3
2022-10-17T03:24:29.086Z,3.7
2022-10-17T03:39:38.678Z,4.5
2022-10-17T03:54:48.314Z,5.1
2022-10-17T04:09:57.768Z,4.7
2022-10-17T04:25:08.146Z,5.1
2022-10-17T04:40:17.468Z,6
2022-10-17T04:55:26.668Z,5.7
2022-10-17T05:10:36.000Z,4.9
2022-10-17T05:25:45.181Z,4.9
2022-10-17T05:40:54.638Z,5.3
2022-10-17T05:56:04.604Z,6.7
2022-10-17T06:11:13.903Z,5.6
2022-10-17T06:26:23.791Z,6.2
2022-10-17T06:41:33.259Z,7.3
2022-10-17T06:56:42.879Z,4.8
2022-10-17T07:11:52.409Z,6.6
2022-10-17T07:27:02.233Z,5.5
2022-10-17T07:42:12.005Z,4.6
2022-10-17T07:57:23.493Z,10.1
2022-10-17T08:12:33.538Z,5.6
2022-10-17T08:27:43.132Z,9.3
2022-10-17T08:42:53.042Z,9.3
2022-10-17T08:58:03.118Z,7
2022-10-17T09:13:13.076Z,5.1
2022-10-17T09:28:24.799Z,5.7
2022-10-17T09:43:34.816Z,9.2
2022-10-17T09:58:44.882Z,6.9
2022-10-17T10:13:55.583Z,9.6
2022-10-17T10:29:05.953Z,5.1
2022-10-17T10:44:16.258Z,7.3
2022-10-17T10:59:26.092Z,4.2
2022-10-17T11:14:35.618Z,17.5
2022-10-17T11:29:44.761Z,5.3
2022-10-17T11:44:54.664Z,3.9
2022-10-17T12:00:04.527Z,6.9
2022-10-17T12:15:14.675Z,8.5
2022-10-17T12:30:24.449Z,4.1
2022-10-17T12:45:34.290Z,5.4
2022-10-17T13:01:24.442Z,4.9
2022-10-17T13:16:35.503Z,4.8
2022-10-17T13:31:46.249Z,5.5
2022-10-17T13:46:55.407Z,7.3
2022-10-17T14:02:04.760Z,8
2022-10-17T14:17:14.088Z,6.8
2022-10-17T14:32:24.409Z,7.6
2022-10-17T14:47:51.079Z,10.2
2022-10-17T15:03:01.675Z,9.3
2022-10-17T15:18:10.961Z,7.4
2022-10-17T15:33:20.285Z,9
2022-10-17T15:48:30.706Z,6.2
2022-10-17T16:03:39.632Z,8.9
2022-10-17T16:18:49.306Z,5.7
2022-10-17T16:33:59.185Z,10.8
2022-10-17T16:49:08.352Z,6.5
2022-10-17T17:04:17.837Z,8.8
2022-10-17T17:19:26.978Z,6.6
2022-10-17T17:34:36.443Z,8.7
2022-10-17T17:49:46.083Z,9.3
2022-10-17T18:04:55.499Z,12.8
2022-10-17T18:20:04.502Z,11.4
2022-10-17T18:35:14.079Z,9.5
2022-10-17T18:50:24.072Z,17.6
2022-10-17T19:05:33.399Z,15
2022-10-17T19:20:42.750Z,13.8
2022-10-17T19:35:51.880Z,10.2
2022-10-17T19:51:01.052Z,12
2022-10-17T20:06:10.297Z,9.6
2022-10-17T20:21:19.892Z,10.3
2022-10-17T20:36:29.689Z,10.8
2022-10-17T20:51:39.522Z,12.1
2022-10-17T21:06:48.944Z,9.8
2022-10-17T21:21:58.129Z,11
2022-10-17T21:37:07.500Z,11.3
2022-10-17T21:52:17.205Z,11.9
2022-10-17T22:07:26.738Z,12.8
2022-10-17T22:22:35.844Z,14.5
2022-10-17T22:37:45.530Z,18.5
2022-10-17T22:52:55.147Z,19.3
2022-10-17T23:08:05.352Z,15.3
2022-10-17T23:23:15.411Z,16.1
2022-10-17T23:38:25.030Z,19.7
2022-10-17T23:53:34.696Z,18.6
